Estación Meteorológica Peña el Pijo (Robertgarden) [ 01/30/23 14:52:35 CET ]

Fecha Hora Presion(HPa) Temp (°C) Humedad % Rocio (°C) Viento ( m/s) Direccion Lluvia 1Hora(mm) Lluvia 24H(mm) LLuvia Total(mm)
2010-Aug-22 01:01:14 1020.400 17.4 82 14.3         152.29
2010-Aug-22 02:01:13 1020.100 16.6 85 14.1         152.29
2010-Aug-22 03:01:12 1019.500 15.6 86 13.3         152.29
2010-Aug-22 04:01:15 1018.900 14.9 87 12.8         152.29
2010-Aug-22 05:01:14 1018.400 14.5 88 12.5         152.29
2010-Aug-22 06:01:15 1018.000 14.1 89 12.3         152.29
2010-Aug-22 07:01:17 1017.900 13.4 89 11.6         152.29
2010-Aug-22 08:01:19 1017.800 13.5 89 11.7         152.29
2010-Aug-22 09:01:15 1017.800 18.5 84 15.7         152.29
2010-Aug-22 10:01:16 1017.600 24.7 64 17.4         152.29
2010-Aug-22 11:01:12 1017.300 30.0 45 16.8         152.29
2010-Aug-22 12:01:18 1017.000 34.5 35 16.7         152.29
2010-Aug-22 13:01:12 1016.600 35.6 30 15.4         152.29
2010-Aug-22 14:01:12 1016.400 36.6 29 15.6         152.29
2010-Aug-22 15:01:18 1015.800 37.3 26 14.4         152.29
2010-Aug-22 16:01:17 1014.800 38.0 20 11.2         152.29
2010-Aug-22 17:01:40 1014.400 37.1 20 10.5         152.29
2010-Aug-22 18:01:44 1014.300 36.1 20 9.7         152.29
2010-Aug-22 19:01:42 1014.100 34.2 23 9.9         152.29
2010-Aug-22 20:01:40 1014.100 30.3 26 8.4         152.29
2010-Aug-22 21:01:14 1014.700 24.9 43 11.4         152.29
2010-Aug-22 22:01:12 1014.900 20.9 56 11.8         152.29
2010-Aug-22 23:01:14 1015.300 18.8 60 10.9         152.29

Temperatura Máxima:38°    Temperatura Mínima:13°
Presión Máxima:1020.400 Hpa    Presión Mínima:1014.100 Hpa


Volver